createdAt,value
2023-04-18T00:00:47.802Z,7.20
2023-04-18T00:01:47.793Z,8.20
2023-04-18T00:02:47.899Z,8.20
2023-04-18T00:03:47.933Z,7.30
2023-04-18T00:04:47.806Z,8.40
2023-04-18T00:05:47.776Z,8.40
2023-04-18T00:06:47.737Z,7.70
2023-04-18T00:07:47.728Z,7.30
2023-04-18T00:08:47.709Z,7.90
2023-04-18T00:09:48.729Z,7.80
2023-04-18T00:10:47.716Z,8.50
2023-04-18T00:11:47.698Z,9.80
2023-04-18T00:12:47.704Z,8.60
2023-04-18T00:13:47.682Z,8.50
2023-04-18T00:14:47.696Z,8.20
2023-04-18T00:15:47.692Z,8.30
2023-04-18T00:16:47.764Z,8.20
2023-04-18T00:17:47.751Z,8.40
2023-04-18T00:18:47.644Z,8.80
2023-04-18T00:19:47.651Z,8.50
2023-04-18T00:20:47.649Z,9.30
2023-04-18T00:21:47.633Z,9.50
2023-04-18T00:22:47.633Z,9.70
2023-04-18T00:23:47.607Z,9.90
2023-04-18T00:24:47.610Z,9.60
2023-04-18T00:25:48.606Z,9.40
2023-04-18T00:26:47.588Z,10.10
2023-04-18T00:27:47.589Z,9.50
2023-04-18T00:28:47.578Z,10.50
2023-04-18T00:29:47.593Z,8.80
2023-04-18T00:30:47.600Z,9.60
2023-04-18T00:31:47.557Z,9.60
2023-04-18T00:32:47.590Z,10.20
2023-04-18T00:33:47.537Z,9.60
2023-04-18T00:34:47.560Z,10.10
2023-04-18T00:35:47.572Z,9.90
2023-04-18T00:36:47.518Z,10.70
2023-04-18T00:37:47.512Z,11.70
2023-04-18T00:38:47.500Z,10.50
2023-04-18T00:39:47.513Z,10.10
2023-04-18T00:40:47.499Z,10.90
2023-04-18T00:41:47.481Z,11.00
2023-04-18T00:42:47.481Z,10.70
2023-04-18T00:43:47.482Z,11.00
2023-04-18T00:44:47.472Z,11.10
2023-04-18T00:45:47.480Z,11.40
2023-04-18T00:46:47.438Z,11.30
2023-04-18T00:47:47.481Z,11.20
2023-04-18T00:48:47.431Z,11.10
2023-04-18T00:49:47.441Z,11.10
2023-04-18T00:50:47.417Z,11.30
2023-04-18T00:51:47.517Z,10.40
2023-04-18T00:52:47.402Z,11.10
2023-04-18T00:53:47.409Z,11.80
2023-04-18T00:54:47.406Z,11.20
2023-04-18T00:55:47.382Z,10.10
2023-04-18T00:56:47.372Z,10.60
2023-04-18T00:57:47.384Z,10.70
2023-04-18T00:58:47.352Z,11.50
2023-04-18T00:59:47.387Z,12.70
2023-04-18T01:00:47.340Z,11.30
2023-04-18T01:01:47.364Z,9.70
2023-04-18T01:02:47.460Z,11.20
2023-04-18T01:03:47.433Z,10.00
2023-04-18T01:04:47.339Z,11.40
2023-04-18T01:05:47.345Z,11.10
2023-04-18T01:06:47.324Z,10.10
2023-04-18T01:07:47.311Z,11.50
2023-04-18T01:08:47.304Z,11.20
2023-04-18T01:09:47.329Z,10.60
2023-04-18T01:10:47.282Z,12.30
2023-04-18T01:11:47.275Z,11.20
2023-04-18T01:12:47.275Z,11.80
2023-04-18T01:13:47.264Z,10.90
2023-04-18T01:14:47.276Z,12.70
2023-04-18T01:15:47.265Z,9.70
2023-04-18T01:16:47.234Z,11.40
2023-04-18T01:17:47.284Z,12.30
2023-04-18T01:18:47.218Z,13.70
2023-04-18T01:19:47.325Z,12.80
2023-04-18T01:20:47.220Z,13.90
2023-04-18T01:21:47.211Z,13.00
2023-04-18T01:22:47.193Z,13.00
2023-04-18T01:23:47.446Z,13.40
2023-04-18T01:24:47.180Z,13.70
2023-04-18T01:25:47.197Z,14.00
2023-04-18T01:26:47.164Z,13.00
2023-04-18T01:27:47.162Z,13.80
2023-04-18T01:28:47.160Z,12.40
2023-04-18T01:29:47.151Z,12.70
2023-04-18T01:30:47.161Z,13.00
2023-04-18T01:31:47.279Z,13.50
2023-04-18T01:32:47.143Z,14.30
2023-04-18T01:33:47.118Z,14.00
2023-04-18T01:34:47.117Z,13.20
2023-04-18T01:35:47.131Z,12.50
2023-04-18T01:36:47.108Z,12.50
2023-04-18T01:37:47.100Z,13.00
2023-04-18T01:38:47.098Z,14.50
2023-04-18T01:39:47.085Z,14.00
2023-04-18T01:40:47.100Z,15.50
2023-04-18T01:41:47.064Z,13.60
2023-04-18T01:42:47.066Z,14.70
2023-04-18T01:43:47.053Z,14.00
2023-04-18T01:44:47.047Z,13.60
2023-04-18T01:45:47.051Z,11.80
2023-04-18T01:46:47.052Z,11.90
2023-04-18T01:47:47.079Z,13.90
2023-04-18T01:48:47.018Z,13.80
2023-04-18T01:49:47.016Z,13.70
2023-04-18T01:50:47.032Z,12.90
2023-04-18T01:51:46.994Z,13.20
2023-04-18T01:52:46.986Z,13.00
2023-04-18T01:53:46.974Z,14.20
2023-04-18T01:54:46.980Z,14.00
2023-04-18T01:55:46.995Z,14.00
2023-04-18T01:56:46.956Z,15.30
2023-04-18T01:57:46.951Z,13.70
2023-04-18T01:58:46.973Z,13.60
2023-04-18T01:59:46.933Z,14.70
2023-04-18T02:00:46.967Z,15.10
2023-04-18T02:01:46.951Z,15.20
2023-04-18T02:02:47.103Z,13.50
2023-04-18T02:03:47.045Z,15.40
2023-04-18T02:04:46.913Z,15.20
2023-04-18T02:05:46.921Z,16.40
2023-04-18T02:06:47.072Z,14.60
2023-04-18T02:07:46.908Z,16.10
2023-04-18T02:08:46.900Z,15.20
2023-04-18T02:09:46.918Z,15.70
2023-04-18T02:10:46.932Z,14.90
2023-04-18T02:11:46.876Z,15.00
2023-04-18T02:12:46.968Z,14.70
2023-04-18T02:13:47.750Z,14.50
2023-04-18T02:14:46.855Z,14.00
2023-04-18T02:15:46.993Z,14.80
2023-04-18T02:16:46.953Z,14.30
2023-04-18T02:17:46.862Z,14.20
2023-04-18T02:18:46.928Z,14.50
2023-04-18T02:19:47.767Z,14.30
2023-04-18T02:20:46.864Z,14.10
2023-04-18T02:21:46.794Z,13.90
2023-04-18T02:22:46.775Z,13.50
2023-04-18T02:23:46.770Z,13.30
2023-04-18T02:24:46.774Z,12.70
2023-04-18T02:25:46.782Z,13.10
2023-04-18T02:26:46.775Z,13.10
2023-04-18T02:27:46.752Z,12.80
2023-04-18T02:28:46.763Z,12.20
2023-04-18T02:29:46.728Z,12.90
2023-04-18T02:30:46.767Z,14.10
2023-04-18T02:31:46.802Z,14.20
2023-04-18T02:32:46.737Z,12.70
2023-04-18T02:33:46.718Z,13.60
2023-04-18T02:34:46.704Z,13.70
2023-04-18T02:35:46.719Z,12.60
2023-04-18T02:36:46.689Z,13.00
2023-04-18T02:37:46.682Z,14.10
2023-04-18T02:38:46.682Z,13.10
2023-04-18T02:39:46.693Z,13.60
2023-04-18T02:40:46.673Z,13.50
2023-04-18T02:41:46.649Z,12.90
2023-04-18T02:42:46.649Z,13.10
2023-04-18T02:43:46.728Z,12.30
2023-04-18T02:44:46.631Z,12.90
2023-04-18T02:45:47.099Z,13.10
2023-04-18T02:46:46.756Z,13.70
2023-04-18T02:47:54.785Z,12.60
2023-04-18T02:48:48.654Z,12.30
2023-04-18T02:49:46.599Z,12.60
2023-04-18T02:50:46.700Z,13.10
2023-04-18T02:51:46.683Z,12.50
2023-04-18T02:52:46.647Z,12.80
2023-04-18T02:53:46.576Z,12.60
2023-04-18T02:54:46.558Z,12.90
2023-04-18T02:55:46.694Z,12.50
2023-04-18T02:56:46.549Z,12.90
2023-04-18T02:57:46.536Z,12.50
2023-04-18T02:58:46.537Z,12.70
2023-04-18T02:59:46.605Z,12.90
2023-04-18T03:00:46.661Z,13.00
2023-04-18T03:01:46.623Z,12.60
2023-04-18T03:02:46.580Z,12.20
2023-04-18T03:03:46.555Z,12.50
2023-04-18T03:04:46.549Z,13.00
2023-04-18T03:05:46.536Z,12.30
2023-04-18T03:06:46.512Z,12.00
2023-04-18T03:07:46.492Z,13.00
2023-04-18T03:08:46.516Z,11.80
2023-04-18T03:09:46.541Z,11.20
2023-04-18T03:10:46.592Z,11.10
2023-04-18T03:11:46.451Z,12.10
2023-04-18T03:12:46.453Z,11.10
2023-04-18T03:13:46.718Z,11.40
2023-04-18T03:14:46.422Z,11.10
2023-04-18T03:15:46.471Z,11.30
2023-04-18T03:16:46.521Z,11.40
2023-04-18T03:17:47.157Z,11.00
2023-04-18T03:18:46.455Z,10.50
2023-04-18T03:19:46.569Z,11.80
2023-04-18T03:20:47.361Z,11.30
2023-04-18T03:21:46.424Z,11.50
2023-04-18T03:22:46.546Z,10.50
2023-04-18T03:23:46.467Z,12.10
2023-04-18T03:24:46.397Z,11.60
2023-04-18T03:25:46.364Z,10.30
2023-04-18T03:26:46.350Z,11.20
2023-04-18T03:27:46.350Z,10.80
2023-04-18T03:28:46.336Z,10.60
2023-04-18T03:29:46.323Z,10.70
2023-04-18T03:30:46.360Z,10.10
2023-04-18T03:31:46.314Z,9.70
2023-04-18T03:32:46.341Z,11.10
2023-04-18T03:33:46.313Z,10.40
2023-04-18T03:34:46.286Z,10.00
2023-04-18T03:35:46.306Z,10.80
2023-04-18T03:36:47.971Z,10.50
2023-04-18T03:37:47.497Z,10.00
2023-04-18T03:38:46.406Z,9.80
2023-04-18T03:39:46.288Z,10.00
2023-04-18T03:40:46.274Z,10.30
2023-04-18T03:41:46.400Z,9.10
2023-04-18T03:42:46.443Z,9.50
2023-04-18T03:43:46.298Z,10.20
2023-04-18T03:44:46.366Z,9.50
2023-04-18T03:45:46.282Z,9.90
2023-04-18T03:46:46.274Z,10.70
2023-04-18T03:47:46.324Z,9.70
2023-04-18T03:48:46.309Z,9.70
2023-04-18T03:49:46.259Z,9.40
2023-04-18T03:50:46.283Z,9.70
2023-04-18T03:51:46.210Z,8.90
2023-04-18T03:52:46.206Z,8.60
2023-04-18T03:53:46.149Z,10.00
2023-04-18T03:54:46.138Z,9.30
2023-04-18T03:55:46.277Z,9.40
2023-04-18T03:56:46.129Z,8.90
2023-04-18T03:57:46.130Z,9.00
2023-04-18T03:58:46.200Z,9.10
2023-04-18T03:59:47.863Z,9.50
2023-04-18T04:00:46.142Z,9.10
2023-04-18T04:01:46.794Z,9.70
2023-04-18T04:02:46.893Z,8.30
2023-04-18T04:03:46.486Z,9.70
2023-04-18T04:04:46.736Z,9.70
2023-04-18T04:05:46.183Z,9.40
2023-04-18T04:06:46.148Z,9.60
2023-04-18T04:07:46.139Z,9.00
2023-04-18T04:08:46.091Z,10.80
2023-04-18T04:09:46.192Z,9.20
2023-04-18T04:10:46.186Z,9.40
2023-04-18T04:11:46.146Z,12.50
2023-04-18T04:12:46.014Z,14.20
2023-04-18T04:13:46.020Z,10.30
2023-04-18T04:14:46.076Z,9.90
2023-04-18T04:15:46.036Z,7.70
2023-04-18T04:16:46.099Z,8.70
2023-04-18T04:17:46.079Z,8.30
2023-04-18T04:18:45.977Z,8.80
2023-04-18T04:19:45.978Z,9.00
2023-04-18T04:20:46.019Z,8.50
2023-04-18T04:21:46.961Z,7.40
2023-04-18T04:22:45.966Z,9.10
2023-04-18T04:23:46.074Z,8.90
2023-04-18T04:24:45.943Z,9.10
2023-04-18T04:25:46.027Z,8.70
2023-04-18T04:26:46.197Z,9.20
2023-04-18T04:27:46.008Z,9.10
2023-04-18T04:28:45.939Z,8.70
2023-04-18T04:29:45.931Z,8.40
2023-04-18T04:30:45.934Z,8.80
2023-04-18T04:31:45.944Z,7.80
2023-04-18T04:32:45.920Z,8.40
2023-04-18T04:33:45.876Z,8.10
2023-04-18T04:34:45.872Z,7.90
2023-04-18T04:35:45.882Z,7.70
2023-04-18T04:36:45.849Z,8.50
2023-04-18T04:37:45.849Z,7.80
2023-04-18T04:38:45.842Z,8.50
2023-04-18T04:39:45.828Z,8.90
2023-04-18T04:40:45.834Z,7.70
2023-04-18T04:41:45.818Z,8.60
2023-04-18T04:42:45.825Z,7.90
2023-04-18T04:43:45.798Z,7.90
2023-04-18T04:44:45.835Z,8.60
2023-04-18T04:45:45.877Z,7.40
2023-04-18T04:46:45.776Z,8.30
2023-04-18T04:47:45.860Z,7.90
2023-04-18T04:48:45.773Z,19.80
2023-04-18T04:49:45.765Z,10.00
2023-04-18T04:50:45.758Z,7.80
2023-04-18T04:51:45.751Z,7.70
2023-04-18T04:52:45.730Z,6.70
2023-04-18T04:53:45.731Z,7.20
2023-04-18T04:54:45.733Z,8.60
2023-04-18T04:55:45.749Z,14.80
2023-04-18T04:56:45.737Z,14.70
2023-04-18T04:57:45.698Z,8.30
2023-04-18T04:58:45.703Z,8.10
2023-04-18T04:59:45.700Z,8.20
2023-04-18T05:00:45.690Z,7.20
2023-04-18T05:01:45.815Z,8.30
2023-04-18T05:02:45.820Z,7.20
2023-04-18T05:03:45.886Z,6.70
2023-04-18T05:04:45.650Z,6.90
2023-04-18T05:05:45.671Z,8.00
2023-04-18T05:06:45.643Z,7.40
2023-04-18T05:07:45.632Z,7.10
2023-04-18T05:08:45.630Z,6.20
2023-04-18T05:09:45.634Z,5.60
2023-04-18T05:10:45.634Z,8.00
2023-04-18T05:11:45.690Z,7.30
2023-04-18T05:12:45.591Z,8.50
2023-04-18T05:13:45.595Z,7.00
2023-04-18T05:14:45.583Z,10.60
2023-04-18T05:15:45.609Z,7.30
2023-04-18T05:16:45.591Z,5.60
2023-04-18T05:17:45.627Z,7.80
2023-04-18T05:18:45.551Z,7.50
2023-04-18T05:19:45.565Z,6.10
2023-04-18T05:20:45.558Z,6.00
2023-04-18T05:21:45.544Z,8.20
2023-04-18T05:22:45.593Z,5.80
2023-04-18T05:23:45.543Z,5.50
2023-04-18T05:24:45.521Z,5.40
2023-04-18T05:25:45.526Z,5.20
2023-04-18T05:26:45.511Z,5.00
2023-04-18T05:27:45.499Z,5.30
2023-04-18T05:28:45.497Z,5.60
2023-04-18T05:29:45.484Z,5.60
2023-04-18T05:30:45.493Z,5.70
2023-04-18T05:31:45.471Z,4.60
2023-04-18T05:32:45.534Z,5.60
2023-04-18T05:33:45.457Z,4.80
2023-04-18T05:34:45.469Z,5.40
2023-04-18T05:35:45.451Z,4.80
2023-04-18T05:36:45.467Z,4.60
2023-04-18T05:37:45.432Z,5.20
2023-04-18T05:38:45.420Z,4.10
2023-04-18T05:39:45.494Z,4.50
2023-04-18T05:40:45.436Z,5.10
2023-04-18T05:41:45.422Z,5.30
2023-04-18T05:42:45.396Z,4.70
2023-04-18T05:44:01.864Z,5.00
2023-04-18T05:44:53.160Z,4.70
2023-04-18T05:45:50.612Z,4.50
2023-04-18T05:46:50.161Z,5.20
2023-04-18T05:47:46.377Z,4.80
2023-04-18T05:48:45.361Z,4.10
2023-04-18T05:49:45.345Z,4.30
2023-04-18T05:50:45.364Z,4.60
2023-04-18T05:51:45.347Z,4.30
2023-04-18T05:52:45.323Z,5.00
2023-04-18T05:53:45.316Z,4.50
2023-04-18T05:54:45.308Z,5.60
2023-04-18T05:55:45.323Z,4.20
2023-04-18T05:56:45.286Z,4.20
2023-04-18T05:57:46.303Z,4.40
2023-04-18T05:58:45.283Z,4.20
2023-04-18T05:59:45.282Z,4.60
2023-04-18T06:00:45.288Z,4.30
2023-04-18T06:01:45.266Z,4.40
2023-04-18T06:02:45.359Z,4.10
2023-04-18T06:03:45.374Z,5.20
2023-04-18T06:04:45.521Z,7.30
2023-04-18T06:05:45.355Z,5.50
2023-04-18T06:06:45.244Z,8.30
2023-04-18T06:07:45.226Z,13.20
2023-04-18T06:08:45.208Z,6.60
2023-04-18T06:09:45.203Z,7.30
2023-04-18T06:10:45.210Z,9.10
2023-04-18T06:11:45.208Z,8.30
2023-04-18T06:12:46.340Z,6.80
2023-04-18T06:13:45.165Z,6.20
2023-04-18T06:14:45.164Z,6.90
2023-04-18T06:15:45.183Z,9.00
2023-04-18T06:16:45.147Z,8.30
2023-04-18T06:17:45.177Z,8.50
2023-04-18T06:18:45.136Z,7.10
2023-04-18T06:19:45.141Z,5.20
2023-04-18T06:20:45.134Z,5.90
2023-04-18T06:21:45.121Z,7.10
2023-04-18T06:22:45.113Z,7.00
2023-04-18T06:23:45.106Z,8.80
2023-04-18T06:24:45.102Z,8.40
2023-04-18T06:25:45.096Z,5.90
2023-04-18T06:26:45.094Z,6.60
2023-04-18T06:27:45.171Z,6.40
2023-04-18T06:28:45.131Z,7.10
2023-04-18T06:29:45.067Z,7.00
2023-04-18T06:30:45.076Z,7.00
2023-04-18T06:31:45.111Z,7.20
2023-04-18T06:32:45.096Z,5.90
2023-04-18T06:33:45.042Z,7.40
2023-04-18T06:34:45.042Z,6.70
2023-04-18T06:35:45.093Z,7.00
2023-04-18T06:36:45.015Z,7.10
2023-04-18T06:37:45.007Z,8.70
2023-04-18T06:38:45.009Z,5.80
2023-04-18T06:39:45.001Z,6.70
2023-04-18T06:40:44.999Z,5.70
2023-04-18T06:41:44.990Z,4.60
2023-04-18T06:42:44.977Z,4.50
2023-04-18T06:43:59.687Z,8.50
2023-04-18T06:44:46.957Z,4.90
2023-04-18T06:45:44.982Z,5.70
2023-04-18T06:46:44.949Z,4.60
2023-04-18T06:47:44.978Z,4.80
2023-04-18T06:48:44.935Z,4.80
2023-04-18T06:49:44.976Z,5.40
2023-04-18T06:50:44.944Z,5.10
2023-04-18T06:51:44.913Z,5.80
2023-04-18T06:52:44.903Z,7.20
2023-04-18T06:53:44.893Z,8.80
2023-04-18T06:54:44.917Z,7.20
2023-04-18T06:55:44.888Z,8.40
2023-04-18T06:56:44.872Z,5.00
2023-04-18T06:57:44.867Z,4.90
2023-04-18T06:58:44.866Z,5.20
2023-04-18T06:59:44.915Z,7.20
2023-04-18T07:00:44.888Z,7.60
2023-04-18T07:01:44.849Z,6.80
2023-04-18T07:02:44.951Z,5.40
2023-04-18T07:03:44.907Z,6.90
2023-04-18T07:04:44.970Z,6.20
2023-04-18T07:05:44.944Z,4.60
2023-04-18T07:06:44.818Z,4.80
2023-04-18T07:07:44.807Z,4.70
2023-04-18T07:08:44.791Z,5.20
2023-04-18T07:09:44.787Z,5.00
2023-04-18T07:10:44.996Z,4.50
2023-04-18T07:11:44.767Z,7.60
2023-04-18T07:12:44.796Z,5.40
2023-04-18T07:13:44.763Z,6.20
2023-04-18T07:14:44.755Z,6.10
2023-04-18T07:15:44.953Z,5.50
2023-04-18T07:16:44.827Z,6.00
2023-04-18T07:17:44.796Z,5.80
2023-04-18T07:18:44.717Z,6.20
2023-04-18T07:19:44.725Z,6.00
2023-04-18T07:20:44.938Z,5.60
2023-04-18T07:21:44.726Z,6.60
2023-04-18T07:22:44.700Z,6.10
2023-04-18T07:23:44.692Z,7.20
2023-04-18T07:24:44.685Z,7.70
2023-04-18T07:25:44.707Z,5.80
2023-04-18T07:26:44.686Z,7.50
2023-04-18T07:27:44.667Z,7.50
2023-04-18T07:28:44.653Z,5.90
2023-04-18T07:29:44.662Z,5.80
2023-04-18T07:30:44.747Z,7.10
2023-04-18T07:31:44.666Z,6.30
2023-04-18T07:32:44.752Z,6.40
2023-04-18T07:33:44.613Z,6.40
2023-04-18T07:34:44.616Z,6.20
2023-04-18T07:35:44.610Z,5.70
2023-04-18T07:36:44.630Z,5.90
2023-04-18T07:37:44.616Z,6.00
2023-04-18T07:38:44.584Z,5.60
2023-04-18T07:39:44.581Z,5.50
2023-04-18T07:40:44.595Z,7.30
2023-04-18T07:41:44.574Z,5.80
2023-04-18T07:42:44.568Z,5.60
2023-04-18T07:43:44.546Z,5.90
2023-04-18T07:44:44.560Z,5.70
2023-04-18T07:45:44.541Z,6.10
2023-04-18T07:46:44.608Z,6.20
2023-04-18T07:47:44.633Z,6.40
2023-04-18T07:48:44.536Z,6.50
2023-04-18T07:49:44.513Z,7.00
2023-04-18T07:50:44.529Z,6.70
2023-04-18T07:51:44.500Z,6.50
2023-04-18T07:52:44.498Z,6.70
2023-04-18T07:53:44.516Z,7.40
2023-04-18T07:54:44.487Z,6.50
2023-04-18T07:55:44.480Z,6.10
2023-04-18T07:56:44.501Z,6.60
2023-04-18T07:57:45.896Z,6.90
2023-04-18T07:58:44.465Z,7.40
2023-04-18T07:59:44.454Z,6.60
2023-04-18T08:00:44.443Z,6.50
2023-04-18T08:01:44.461Z,7.20
2023-04-18T08:02:44.521Z,7.20
2023-04-18T08:03:44.644Z,6.80
2023-04-18T08:04:44.524Z,6.30
2023-04-18T08:05:44.413Z,6.40
2023-04-18T08:06:44.421Z,7.70
2023-04-18T08:07:44.410Z,7.20
2023-04-18T08:08:44.392Z,6.50
2023-04-18T08:09:44.382Z,7.60
2023-04-18T08:10:44.389Z,6.80
2023-04-18T08:11:44.381Z,6.40
2023-04-18T08:12:44.369Z,6.50
2023-04-18T08:13:44.358Z,7.00
2023-04-18T08:14:44.345Z,6.80
2023-04-18T08:15:44.383Z,7.50
2023-04-18T08:16:44.440Z,7.00
2023-04-18T08:17:44.366Z,7.20
2023-04-18T08:18:44.325Z,7.20
2023-04-18T08:19:44.318Z,6.70
2023-04-18T08:20:44.323Z,7.40
2023-04-18T08:21:44.318Z,7.30
2023-04-18T08:22:57.469Z,7.30
2023-04-18T08:23:46.286Z,7.10
2023-04-18T08:25:01.037Z,7.40
2023-04-18T08:25:46.281Z,7.60
2023-04-18T08:26:44.281Z,7.20
2023-04-18T08:27:44.398Z,7.50
2023-04-18T08:28:46.303Z,7.80
2023-04-18T08:29:44.245Z,8.00
2023-04-18T08:30:44.241Z,7.10
2023-04-18T08:31:44.281Z,7.70
2023-04-18T08:32:44.280Z,6.80
2023-04-18T08:33:44.220Z,7.80
2023-04-18T08:34:44.199Z,9.10
2023-04-18T08:35:44.222Z,8.10
2023-04-18T08:36:44.234Z,8.00
2023-04-18T08:37:44.233Z,8.10
2023-04-18T08:38:44.188Z,8.90
2023-04-18T08:39:44.907Z,8.60
2023-04-18T08:40:44.232Z,8.70
2023-04-18T08:41:44.190Z,9.10
2023-04-18T08:42:44.164Z,8.80
2023-04-18T08:43:44.156Z,9.60
2023-04-18T08:44:44.156Z,9.80
2023-04-18T08:45:44.304Z,9.30
2023-04-18T08:46:44.141Z,10.40
2023-04-18T08:47:44.149Z,9.10
2023-04-18T08:48:44.111Z,9.80
2023-04-18T08:49:44.094Z,9.40
2023-04-18T08:50:44.115Z,10.20
2023-04-18T08:51:44.109Z,10.10
2023-04-18T08:52:44.091Z,10.30
2023-04-18T08:53:44.078Z,10.00
2023-04-18T08:54:44.077Z,11.30
2023-04-18T08:55:44.064Z,10.50
2023-04-18T08:56:44.234Z,10.20
2023-04-18T08:57:44.050Z,11.00
2023-04-18T08:58:44.054Z,12.10
2023-04-18T08:59:45.625Z,11.10
2023-04-18T09:00:44.029Z,11.30
2023-04-18T09:01:44.066Z,18.20
2023-04-18T09:02:44.069Z,12.00
2023-04-18T09:03:44.017Z,13.30
2023-04-18T09:04:44.012Z,12.30
2023-04-18T09:05:44.003Z,13.10
2023-04-18T09:06:44.036Z,13.50
2023-04-18T09:07:44.002Z,13.50
2023-04-18T09:08:44.006Z,25.40
2023-04-18T09:09:43.960Z,15.30
2023-04-18T09:10:46.077Z,20.50
2023-04-18T09:11:43.967Z,17.40
2023-04-18T09:12:43.941Z,20.40
2023-04-18T09:13:43.942Z,13.80
2023-04-18T09:14:43.928Z,14.90
2023-04-18T09:15:43.922Z,14.50
2023-04-18T09:16:43.965Z,14.90
2023-04-18T09:17:43.945Z,14.30
2023-04-18T09:18:43.892Z,15.10
2023-04-18T09:19:43.901Z,14.60
2023-04-18T09:20:43.896Z,13.30
2023-04-18T09:21:43.910Z,15.50
2023-04-18T09:22:43.884Z,13.90
2023-04-18T09:23:43.866Z,14.10
2023-04-18T09:24:43.860Z,14.20
2023-04-18T09:25:45.120Z,16.60
2023-04-18T09:26:44.866Z,17.40
2023-04-18T09:27:43.842Z,19.10
2023-04-18T09:28:43.837Z,15.80
2023-04-18T09:29:43.834Z,16.30
2023-04-18T09:30:43.857Z,18.60
2023-04-18T09:31:43.849Z,14.40
2023-04-18T09:32:43.850Z,13.60
2023-04-18T09:33:43.793Z,15.60
2023-04-18T09:34:43.789Z,15.60
2023-04-18T09:35:43.815Z,16.50
2023-04-18T09:36:43.827Z,15.20
2023-04-18T09:37:43.780Z,16.70
2023-04-18T09:38:43.770Z,18.00
2023-04-18T09:39:43.753Z,15.90
2023-04-18T09:40:43.802Z,15.70
2023-04-18T09:41:43.770Z,34.30
2023-04-18T09:42:43.737Z,19.60
2023-04-18T09:43:43.729Z,33.00
2023-04-18T09:44:43.722Z,17.00
2023-04-18T09:45:43.729Z,20.20
2023-04-18T09:46:46.567Z,17.40
2023-04-18T09:47:44.715Z,18.80
2023-04-18T09:48:43.706Z,19.80
2023-04-18T09:49:43.697Z,20.30
2023-04-18T09:50:43.676Z,15.80
2023-04-18T09:51:43.700Z,19.20
2023-04-18T09:52:43.668Z,16.60
2023-04-18T09:53:43.649Z,19.10
2023-04-18T09:54:43.641Z,22.10
2023-04-18T09:55:43.644Z,17.50
2023-04-18T09:56:43.655Z,19.70
2023-04-18T09:57:43.634Z,23.60
2023-04-18T09:58:43.629Z,17.20
2023-04-18T09:59:43.613Z,22.40
2023-04-18T10:00:45.008Z,14.10
2023-04-18T10:01:43.634Z,18.00
2023-04-18T10:02:43.645Z,14.30
2023-04-18T10:03:43.659Z,13.60
2023-04-18T10:04:43.661Z,13.70
2023-04-18T10:05:43.691Z,13.40
2023-04-18T10:06:43.582Z,15.30
2023-04-18T10:07:43.565Z,14.20
2023-04-18T10:08:43.554Z,12.70
2023-04-18T10:09:43.535Z,14.30
2023-04-18T10:10:43.544Z,11.90
2023-04-18T10:11:43.622Z,11.10
2023-04-18T10:12:43.557Z,11.00
2023-04-18T10:13:43.518Z,10.10
2023-04-18T10:14:43.523Z,10.60
2023-04-18T10:15:44.268Z,10.70
2023-04-18T10:16:44.549Z,10.40
2023-04-18T10:17:55.953Z,9.60
2023-04-18T10:18:45.483Z,10.80
2023-04-18T10:19:43.471Z,9.40
2023-04-18T10:20:43.463Z,11.30
2023-04-18T10:21:43.500Z,10.30
2023-04-18T10:22:43.477Z,12.70
2023-04-18T10:23:43.467Z,8.80
2023-04-18T10:24:43.523Z,10.40
2023-04-18T10:25:43.444Z,22.10
2023-04-18T10:26:43.439Z,10.10
2023-04-18T10:27:43.440Z,9.40
2023-04-18T10:28:43.414Z,9.10
2023-04-18T10:29:43.406Z,11.40
2023-04-18T10:30:43.416Z,8.20
2023-04-18T10:31:43.433Z,8.20
2023-04-18T10:32:44.410Z,10.40
2023-04-18T10:33:43.447Z,6.90
2023-04-18T10:34:43.383Z,7.90
2023-04-18T10:35:43.375Z,7.60
2023-04-18T10:36:43.398Z,6.90
2023-04-18T10:37:43.361Z,8.80
2023-04-18T10:38:43.349Z,7.40
2023-04-18T10:39:43.342Z,8.60
2023-04-18T10:40:43.338Z,11.40
2023-04-18T10:41:43.359Z,10.30
2023-04-18T10:42:43.331Z,10.20
2023-04-18T10:43:43.332Z,18.40
2023-04-18T10:44:43.317Z,12.10
2023-04-18T10:45:43.290Z,11.60
2023-04-18T10:46:44.357Z,8.00
2023-04-18T10:47:44.401Z,7.00
2023-04-18T10:48:43.292Z,7.20
2023-04-18T10:49:43.278Z,7.40
2023-04-18T10:50:43.279Z,6.70
2023-04-18T10:51:43.286Z,6.80
2023-04-18T10:52:43.268Z,6.50
2023-04-18T10:53:43.273Z,6.80
2023-04-18T10:54:43.248Z,5.40
2023-04-18T10:55:43.224Z,6.00
2023-04-18T10:56:43.234Z,6.30
2023-04-18T10:57:43.242Z,8.30
2023-04-18T10:58:43.234Z,7.90
2023-04-18T10:59:43.200Z,6.30
2023-04-18T11:00:43.201Z,6.30
2023-04-18T11:01:43.210Z,6.00
2023-04-18T11:02:43.346Z,6.60
2023-04-18T11:03:43.368Z,6.00
2023-04-18T11:04:43.184Z,6.80
2023-04-18T11:05:43.170Z,10.10
2023-04-18T11:06:43.420Z,8.20
2023-04-18T11:07:43.151Z,5.30
2023-04-18T11:08:43.147Z,8.50
2023-04-18T11:09:45.463Z,6.00
2023-04-18T11:10:43.133Z,6.10
2023-04-18T11:11:43.156Z,5.10
2023-04-18T11:12:43.109Z,5.60
2023-04-18T11:13:43.120Z,6.80
2023-04-18T11:14:43.415Z,5.70
2023-04-18T11:15:43.089Z,7.40
2023-04-18T11:16:43.127Z,13.40
2023-04-18T11:17:43.096Z,6.50
2023-04-18T11:18:43.066Z,6.20
2023-04-18T11:19:43.067Z,4.30
2023-04-18T11:20:43.067Z,4.80
2023-04-18T11:21:43.083Z,5.70
2023-04-18T11:22:43.045Z,5.20
2023-04-18T11:23:43.044Z,7.00
2023-04-18T11:24:43.034Z,5.70
2023-04-18T11:25:43.053Z,3.60
2023-04-18T11:26:43.049Z,4.60
2023-04-18T11:27:43.011Z,4.20
2023-04-18T11:28:43.017Z,3.90
2023-04-18T11:29:43.008Z,4.30
2023-04-18T11:30:42.998Z,4.50
2023-04-18T11:31:43.069Z,4.50
2023-04-18T11:32:43.060Z,4.40
2023-04-18T11:33:42.969Z,4.10
2023-04-18T11:34:42.973Z,4.10
2023-04-18T11:35:42.969Z,3.80
2023-04-18T11:36:42.990Z,4.10
2023-04-18T11:37:42.955Z,4.10
2023-04-18T11:38:42.960Z,5.70
2023-04-18T11:39:42.998Z,4.00
2023-04-18T11:40:42.946Z,4.20
2023-04-18T11:41:42.924Z,4.00
2023-04-18T11:42:42.921Z,3.50
2023-04-18T11:43:42.908Z,5.00
2023-04-18T11:44:42.946Z,8.50
2023-04-18T11:45:42.934Z,6.10
2023-04-18T11:46:42.905Z,5.70
2023-04-18T11:47:43.145Z,4.60
2023-04-18T11:48:42.868Z,5.30
2023-04-18T11:49:42.850Z,4.10
2023-04-18T11:50:42.856Z,3.70
2023-04-18T11:51:42.869Z,3.20
2023-04-18T11:52:42.949Z,3.50
2023-04-18T11:53:42.831Z,7.40
2023-04-18T11:54:42.817Z,3.10
2023-04-18T11:55:43.812Z,4.90
2023-04-18T11:56:42.855Z,3.90
2023-04-18T11:57:42.803Z,4.30
2023-04-18T11:58:42.803Z,3.20
2023-04-18T11:59:42.786Z,3.60
2023-04-18T12:00:42.789Z,6.40
2023-04-18T12:01:42.797Z,4.10
2023-04-18T12:02:42.913Z,4.50
2023-04-18T12:03:43.069Z,6.10
2023-04-18T12:04:43.023Z,2.90
2023-04-18T12:05:42.867Z,4.50
2023-04-18T12:06:42.816Z,21.40
2023-04-18T12:07:42.731Z,4.90
2023-04-18T12:08:42.720Z,2.70
2023-04-18T12:09:42.713Z,2.70
2023-04-18T12:10:42.824Z,2.90
2023-04-18T12:11:42.750Z,2.80
2023-04-18T12:12:42.683Z,2.70
2023-04-18T12:13:42.681Z,2.50
2023-04-18T12:14:42.679Z,2.80
2023-04-18T12:15:42.684Z,2.60
2023-04-18T12:16:42.672Z,3.00
2023-04-18T12:17:42.682Z,2.80
2023-04-18T12:18:42.653Z,2.80
2023-04-18T12:19:42.674Z,2.80
2023-04-18T12:20:42.680Z,2.80
2023-04-18T12:21:42.668Z,2.70
2023-04-18T12:22:42.633Z,2.70
2023-04-18T12:23:42.647Z,3.00
2023-04-18T12:24:42.607Z,2.70
2023-04-18T12:25:42.609Z,2.60
2023-04-18T12:26:42.620Z,2.40
2023-04-18T12:27:42.594Z,2.60
2023-04-18T12:28:42.613Z,2.70
2023-04-18T12:29:43.147Z,2.70
2023-04-18T12:30:42.704Z,2.70
2023-04-18T12:31:42.600Z,3.60
2023-04-18T12:32:42.579Z,3.30
2023-04-18T12:33:42.562Z,2.60
2023-04-18T12:34:42.533Z,2.70
2023-04-18T12:35:42.537Z,2.80
2023-04-18T12:36:42.534Z,3.40
2023-04-18T12:37:42.538Z,3.50
2023-04-18T12:38:42.501Z,4.40
2023-04-18T12:39:42.509Z,3.60
2023-04-18T12:40:42.509Z,3.70
2023-04-18T12:41:42.527Z,3.00
2023-04-18T12:42:42.487Z,3.00
2023-04-18T12:43:42.474Z,3.20
2023-04-18T12:44:42.588Z,3.50
2023-04-18T12:45:43.176Z,3.20
2023-04-18T12:46:42.624Z,3.10
2023-04-18T12:47:42.552Z,2.90
2023-04-18T12:48:42.542Z,3.10
2023-04-18T12:49:42.471Z,2.80
2023-04-18T12:50:42.447Z,3.30
2023-04-18T12:51:42.512Z,3.10
2023-04-18T12:52:42.427Z,2.70
2023-04-18T12:53:42.400Z,3.10
2023-04-18T12:54:42.403Z,2.70
2023-04-18T12:55:42.397Z,2.80
2023-04-18T12:56:42.430Z,2.50
2023-04-18T12:57:42.384Z,2.50
2023-04-18T12:58:42.374Z,2.60
2023-04-18T12:59:42.359Z,2.60
2023-04-18T13:00:42.420Z,2.70
2023-04-18T13:01:42.382Z,2.70
2023-04-18T13:02:42.602Z,2.70
2023-04-18T13:03:42.536Z,2.60
2023-04-18T13:04:42.479Z,2.90
2023-04-18T13:05:42.322Z,3.10
2023-04-18T13:06:42.333Z,2.60
2023-04-18T13:07:42.511Z,2.60
2023-04-18T13:08:42.300Z,2.60